Time;durP1;ratioP1;P1;durP2;ratioP2;P2;SDS_P1;SDS_P2;PMS_P1;PMS_P2;Temp;Humidity;BMP_temperature;BMP_pressure;BME280_temperature;BME280_humidity;BME280_pressure;Samples;Min_cycle;Max_cycle;Signal;HPM_P1;HPM_P2
2021/10/07 00:00:13;;;;;;;;;;;22.20;56.70;;;;;;495456;240;1079;-47
2021/10/07 00:02:14;;;;;;;;;;;22.20;56.50;;;;;;495246;240;1428;-47
2021/10/07 00:04:15;;;;;;;;;;;22.20;56.60;;;;;;495533;240;1281;-47
2021/10/07 00:06:17;;;;;;;;;;;22.20;56.70;;;;;;495409;240;1359;-47
2021/10/07 00:08:18;;;;;;;;;;;22.20;56.70;;;;;;495734;240;1095;-47
2021/10/07 00:10:20;;;;;;;;;;;22.20;56.90;;;;;;495168;241;1100;-47
2021/10/07 00:12:21;;;;;;;;;;;22.20;56.90;;;;;;495038;241;2181;-47
2021/10/07 00:14:22;;;;;;;;;;;22.20;56.80;;;;;;495721;240;1080;-47
2021/10/07 00:16:24;;;;;;;;;;;22.20;56.70;;;;;;495669;240;1069;-47
2021/10/07 00:18:25;;;;;;;;;;;22.20;56.70;;;;;;495225;241;1190;-47
2021/10/07 00:20:26;;;;;;;;;;;22.20;56.70;;;;;;495179;241;1250;-47
2021/10/07 00:22:28;;;;;;;;;;;22.20;56.60;;;;;;495247;240;1039;-47
2021/10/07 00:24:29;;;;;;;;;;;22.20;56.70;;;;;;495263;240;1120;-47
2021/10/07 00:26:30;;;;;;;;;;;22.20;56.60;;;;;;495404;240;1055;-47
2021/10/07 00:28:33;;;;;;;;;;;22.20;56.60;;;;;;495394;240;1101;-47
2021/10/07 00:30:33;;;;;;;;;;;22.20;56.60;;;;;;495344;240;2458;-47
2021/10/07 00:32:37;;;;;;;;;;;22.20;56.70;;;;;;495456;240;2127;-47
2021/10/07 00:34:47;;;;;;;;;;;22.20;56.60;;;;;;495098;240;1981;-47
2021/10/07 00:36:57;;;;;;;;;;;22.30;56.60;;;;;;494701;240;2360;-47
2021/10/07 00:39:05;;;;;;;;;;;22.20;56.60;;;;;;494533;240;2149;-47
2021/10/07 00:41:06;;;;;;;;;;;22.20;56.60;;;;;;495107;241;1102;-47
2021/10/07 00:43:07;;;;;;;;;;;22.20;56.60;;;;;;495350;240;1031;-47
2021/10/07 00:45:08;;;;;;;;;;;22.20;56.60;;;;;;495214;241;1015;-47
2021/10/07 00:47:10;;;;;;;;;;;22.20;56.70;;;;;;495087;241;1221;-47
2021/10/07 00:49:11;;;;;;;;;;;22.20;56.70;;;;;;495411;240;1437;-48
2021/10/07 00:51:12;;;;;;;;;;;22.20;56.70;;;;;;495535;240;1243;-47
2021/10/07 00:53:14;;;;;;;;;;;22.20;56.70;;;;;;495227;241;2185;-47
2021/10/07 00:55:15;;;;;;;;;;;22.20;56.70;;;;;;495668;240;1166;-47
2021/10/07 00:57:18;;;;;;;;;;;22.20;56.60;;;;;;495629;240;1217;-48
2021/10/07 00:59:19;;;;;;;;;;;22.20;56.70;;;;;;495736;240;2440;-47
2021/10/07 01:01:20;;;;;;;;;;;22.20;56.60;;;;;;495329;240;1315;-47
2021/10/07 01:03:21;;;;;;;;;;;22.20;56.60;;;;;;495251;241;1070;-47
2021/10/07 01:05:23;;;;;;;;;;;22.20;56.50;;;;;;495462;240;1159;-47
2021/10/07 01:07:24;;;;;;;;;;;22.20;56.50;;;;;;495363;240;1283;-47
2021/10/07 01:09:25;;;;;;;;;;;22.20;56.70;;;;;;495335;240;1043;-47
2021/10/07 01:11:26;;;;;;;;;;;22.20;56.70;;;;;;495169;240;1154;-47
2021/10/07 01:13:28;;;;;;;;;;;22.20;56.50;;;;;;495240;240;2186;-47
2021/10/07 01:15:29;;;;;;;;;;;22.20;56.60;;;;;;495238;241;1082;-47
2021/10/07 01:17:30;;;;;;;;;;;22.20;56.60;;;;;;495249;240;1106;-47
2021/10/07 01:19:32;;;;;;;;;;;22.20;56.60;;;;;;495660;240;1439;-47
2021/10/07 01:21:33;;;;;;;;;;;22.20;56.50;;;;;;495106;241;1460;-47
2021/10/07 01:23:34;;;;;;;;;;;22.20;56.60;;;;;;495331;240;1236;-47
2021/10/07 01:25:36;;;;;;;;;;;22.20;56.60;;;;;;495226;241;1051;-47
2021/10/07 01:27:37;;;;;;;;;;;22.30;56.60;;;;;;495693;240;1078;-47
2021/10/07 01:29:39;;;;;;;;;;;22.20;56.50;;;;;;495268;240;1026;-47
2021/10/07 01:31:40;;;;;;;;;;;22.20;56.70;;;;;;495217;240;1325;-48
2021/10/07 01:33:41;;;;;;;;;;;22.20;56.60;;;;;;495264;241;2154;-47
2021/10/07 01:35:43;;;;;;;;;;;22.20;56.60;;;;;;495422;240;1175;-47
2021/10/07 01:37:44;;;;;;;;;;;22.20;56.60;;;;;;495711;240;1183;-47
2021/10/07 01:39:45;;;;;;;;;;;22.20;56.50;;;;;;495668;240;1190;-47
2021/10/07 01:41:47;;;;;;;;;;;22.20;56.60;;;;;;495475;240;1213;-47
2021/10/07 01:43:48;;;;;;;;;;;22.30;56.60;;;;;;495180;241;1221;-47
2021/10/07 01:45:49;;;;;;;;;;;22.20;56.50;;;;;;495231;241;1447;-47
2021/10/07 01:47:51;;;;;;;;;;;22.20;56.60;;;;;;495654;240;1262;-47
2021/10/07 01:49:52;;;;;;;;;;;22.20;56.60;;;;;;495613;240;1327;-47
2021/10/07 01:51:53;;;;;;;;;;;22.20;56.60;;;;;;495090;240;1316;-47
2021/10/07 01:53:54;;;;;;;;;;;22.20;56.70;;;;;;495587;240;2213;-46
2021/10/07 01:55:56;;;;;;;;;;;22.20;56.70;;;;;;495354;240;1124;-47
2021/10/07 01:57:57;;;;;;;;;;;22.20;56.70;;;;;;495296;240;1162;-47
2021/10/07 01:59:58;;;;;;;;;;;22.10;56.70;;;;;;495224;241;1153;-47
2021/10/07 02:02:00;;;;;;;;;;;22.20;56.60;;;;;;495321;240;1431;-47
2021/10/07 02:04:01;;;;;;;;;;;22.10;56.70;;;;;;495531;240;1079;-47
2021/10/07 02:06:02;;;;;;;;;;;22.20;56.50;;;;;;495207;241;1212;-47
2021/10/07 02:08:04;;;;;;;;;;;22.20;56.50;;;;;;495326;240;1221;-47
2021/10/07 02:10:05;;;;;;;;;;;22.20;56.50;;;;;;495619;240;1071;-47
2021/10/07 02:12:06;;;;;;;;;;;22.20;56.50;;;;;;495110;240;1441;-47
2021/10/07 02:14:08;;;;;;;;;;;22.20;56.50;;;;;;495292;240;2119;-48
2021/10/07 02:16:09;;;;;;;;;;;22.20;56.50;;;;;;495110;241;1687;-47
2021/10/07 02:18:10;;;;;;;;;;;22.20;56.50;;;;;;495474;240;1169;-47
2021/10/07 02:20:12;;;;;;;;;;;22.20;56.60;;;;;;495354;240;1357;-47
2021/10/07 02:22:13;;;;;;;;;;;22.20;56.60;;;;;;495039;241;1204;-47
2021/10/07 02:24:14;;;;;;;;;;;22.20;56.60;;;;;;495490;240;1075;-47
2021/10/07 02:26:16;;;;;;;;;;;22.20;56.50;;;;;;495292;240;1332;-47
2021/10/07 02:28:17;;;;;;;;;;;22.20;56.60;;;;;;495275;240;1072;-47
2021/10/07 02:30:19;;;;;;;;;;;22.20;56.50;;;;;;495175;241;1014;-47
2021/10/07 02:32:20;;;;;;;;;;;22.20;56.50;;;;;;495513;240;1129;-47
2021/10/07 02:34:21;;;;;;;;;;;22.20;56.50;;;;;;495287;240;2118;-47
2021/10/07 02:36:23;;;;;;;;;;;22.20;56.50;;;;;;495335;240;1251;-47
2021/10/07 02:38:24;;;;;;;;;;;22.20;56.60;;;;;;495471;240;1054;-46
2021/10/07 02:40:27;;;;;;;;;;;22.20;56.50;;;;;;495129;241;963;-47
2021/10/07 02:42:27;;;;;;;;;;;22.20;56.60;;;;;;495011;240;2065;-47
2021/10/07 02:44:28;;;;;;;;;;;22.20;56.50;;;;;;495219;241;1117;-47
2021/10/07 02:46:29;;;;;;;;;;;22.20;56.50;;;;;;495477;240;1207;-47
2021/10/07 02:48:30;;;;;;;;;;;22.20;56.50;;;;;;495737;240;2459;-47
2021/10/07 02:50:32;;;;;;;;;;;22.20;56.40;;;;;;495614;240;1212;-47
2021/10/07 02:52:33;;;;;;;;;;;22.20;56.50;;;;;;495256;240;1258;-47
2021/10/07 02:54:34;;;;;;;;;;;22.20;56.50;;;;;;495753;240;2178;-47
2021/10/07 02:56:36;;;;;;;;;;;22.20;56.50;;;;;;495425;240;1345;-47
2021/10/07 02:58:37;;;;;;;;;;;22.20;56.50;;;;;;495358;240;1184;-47
2021/10/07 03:00:38;;;;;;;;;;;22.20;56.50;;;;;;495371;240;1096;-47
2021/10/07 03:02:40;;;;;;;;;;;22.20;56.50;;;;;;495155;241;1182;-47
2021/10/07 03:04:41;;;;;;;;;;;22.20;56.50;;;;;;495264;240;1060;-47
2021/10/07 03:06:42;;;;;;;;;;;22.30;56.50;;;;;;495344;240;1292;-47
2021/10/07 03:08:44;;;;;;;;;;;22.30;56.50;;;;;;495389;240;1055;-47
2021/10/07 03:10:45;;;;;;;;;;;22.20;56.50;;;;;;495367;240;1196;-47
2021/10/07 03:12:46;;;;;;;;;;;22.20;56.50;;;;;;495209;241;1405;-47
2021/10/07 03:14:48;;;;;;;;;;;22.20;56.50;;;;;;495322;240;2194;-47
2021/10/07 03:16:49;;;;;;;;;;;22.20;56.60;;;;;;495485;237;1439;-47
2021/10/07 03:18:50;;;;;;;;;;;22.20;56.50;;;;;;495671;240;1043;-47
2021/10/07 03:20:52;;;;;;;;;;;22.20;56.50;;;;;;495407;240;1111;-47
2021/10/07 03:22:53;;;;;;;;;;;22.20;56.50;;;;;;495676;240;1108;-47
2021/10/07 03:24:54;;;;;;;;;;;22.20;56.50;;;;;;495742;240;1039;-47
2021/10/07 03:26:56;;;;;;;;;;;22.20;56.50;;;;;;495225;240;1272;-47
2021/10/07 03:28:57;;;;;;;;;;;22.20;56.50;;;;;;495250;241;1044;-47
2021/10/07 03:30:58;;;;;;;;;;;22.20;56.50;;;;;;495353;240;1153;-47
2021/10/07 03:32:59;;;;;;;;;;;22.30;56.40;;;;;;495291;241;1013;-48
2021/10/07 03:35:01;;;;;;;;;;;22.20;56.50;;;;;;495284;241;2186;-47
2021/10/07 03:37:02;;;;;;;;;;;22.20;56.40;;;;;;495391;240;1202;-47
2021/10/07 03:39:03;;;;;;;;;;;22.20;56.40;;;;;;495362;240;1020;-47
2021/10/07 03:41:05;;;;;;;;;;;22.20;56.50;;;;;;495140;240;1478;-47
2021/10/07 03:43:06;;;;;;;;;;;22.20;56.50;;;;;;495220;241;1038;-47
2021/10/07 03:45:07;;;;;;;;;;;22.20;56.50;;;;;;495407;240;1044;-47
2021/10/07 03:47:09;;;;;;;;;;;22.20;56.40;;;;;;495385;240;1348;-47
2021/10/07 03:49:10;;;;;;;;;;;22.30;56.40;;;;;;495290;241;1028;-47
2021/10/07 03:51:11;;;;;;;;;;;22.20;56.40;;;;;;495525;240;1704;-47
2021/10/07 03:53:13;;;;;;;;;;;22.30;56.50;;;;;;495730;240;1278;-47
2021/10/07 03:55:14;;;;;;;;;;;22.30;56.40;;;;;;495213;241;2190;-47
2021/10/07 03:57:15;;;;;;;;;;;22.20;56.40;;;;;;495112;240;1161;-47
2021/10/07 03:59:17;;;;;;;;;;;22.20;56.40;;;;;;495252;240;1092;-47
2021/10/07 04:01:18;;;;;;;;;;;22.30;56.40;;;;;;495071;240;1224;-47
2021/10/07 04:03:19;;;;;;;;;;;22.20;56.40;;;;;;495142;241;1174;-47
2021/10/07 04:05:21;;;;;;;;;;;22.30;56.50;;;;;;495219;241;1184;-47
2021/10/07 04:07:22;;;;;;;;;;;22.20;56.40;;;;;;495136;241;1196;-47
2021/10/07 04:09:23;;;;;;;;;;;22.20;56.50;;;;;;495240;241;1006;-47
2021/10/07 04:11:24;;;;;;;;;;;22.30;56.40;;;;;;495180;241;1207;-47
2021/10/07 04:13:26;;;;;;;;;;;22.20;56.50;;;;;;495277;240;1065;-47
2021/10/07 04:15:27;;;;;;;;;;;22.20;56.40;;;;;;495197;241;2191;-47
2021/10/07 04:17:28;;;;;;;;;;;22.20;56.40;;;;;;495147;241;1222;-47
2021/10/07 04:19:30;;;;;;;;;;;22.20;56.40;;;;;;495650;240;1238;-47
2021/10/07 04:21:31;;;;;;;;;;;22.20;56.50;;;;;;495428;240;1211;-47
2021/10/07 04:26:10;;;;;;;;;;;22.30;56.30;;;;;;495060;240;2319;-47
2021/10/07 04:28:11;;;;;;;;;;;22.20;56.30;;;;;;494996;241;1093;-47
2021/10/07 04:30:13;;;;;;;;;;;22.20;56.30;;;;;;495297;240;1241;-47
2021/10/07 04:32:14;;;;;;;;;;;22.20;56.30;;;;;;494994;240;1234;-47
2021/10/07 04:34:15;;;;;;;;;;;22.30;56.30;;;;;;495216;240;2123;-47
2021/10/07 04:36:17;;;;;;;;;;;22.30;56.30;;;;;;495095;240;1168;-47
2021/10/07 04:38:18;;;;;;;;;;;22.30;56.30;;;;;;495049;241;1167;-47
2021/10/07 04:40:19;;;;;;;;;;;22.30;56.30;;;;;;495050;241;1109;-46
2021/10/07 04:42:21;;;;;;;;;;;22.20;56.40;;;;;;494984;240;1081;-47
2021/10/07 04:44:22;;;;;;;;;;;22.30;56.40;;;;;;495014;241;1027;-47
2021/10/07 04:46:23;;;;;;;;;;;22.30;56.40;;;;;;495154;240;1081;-47
2021/10/07 04:48:25;;;;;;;;;;;22.20;56.40;;;;;;495008;241;1336;-47
2021/10/07 04:50:26;;;;;;;;;;;22.20;56.40;;;;;;495013;241;1083;-47
2021/10/07 04:52:27;;;;;;;;;;;22.20;56.30;;;;;;495188;240;1192;-47
2021/10/07 04:54:29;;;;;;;;;;;22.20;56.40;;;;;;495127;240;2194;-47
2021/10/07 04:59:08;;;;;;;;;;;22.20;56.40;;;;;;495091;240;2133;-47
2021/10/07 05:01:09;;;;;;;;;;;22.20;56.40;;;;;;495247;240;1322;-47
2021/10/07 05:03:11;;;;;;;;;;;22.20;56.40;;;;;;494929;241;1098;-47
2021/10/07 05:05:12;;;;;;;;;;;22.30;56.40;;;;;;495042;241;1092;-47
2021/10/07 05:07:13;;;;;;;;;;;22.30;56.30;;;;;;495175;240;1200;-47
2021/10/07 05:09:15;;;;;;;;;;;22.20;56.40;;;;;;494936;241;1099;-47
2021/10/07 05:11:16;;;;;;;;;;;22.20;56.40;;;;;;494940;240;1224;-48
2021/10/07 05:13:17;;;;;;;;;;;22.30;56.40;;;;;;494952;240;1217;-48
2021/10/07 05:15:21;;;;;;;;;;;22.20;56.40;;;;;;495265;240;2190;-47
2021/10/07 05:17:20;;;;;;;;;;;22.20;56.40;;;;;;494689;240;2019;-47
2021/10/07 05:19:21;;;;;;;;;;;22.20;56.40;;;;;;494988;240;1100;-47
2021/10/07 05:21:22;;;;;;;;;;;22.20;56.40;;;;;;494981;241;1107;-47
2021/10/07 05:23:24;;;;;;;;;;;22.30;56.40;;;;;;495082;240;1151;-47
2021/10/07 05:25:25;;;;;;;;;;;22.30;56.30;;;;;;495154;240;1062;-47
2021/10/07 05:27:27;;;;;;;;;;;22.30;56.30;;;;;;495069;240;1174;-46
2021/10/07 05:29:28;;;;;;;;;;;22.30;56.30;;;;;;495120;240;1057;-47
2021/10/07 05:31:29;;;;;;;;;;;22.30;56.30;;;;;;494772;241;1113;-47
2021/10/07 05:33:31;;;;;;;;;;;22.20;56.30;;;;;;494906;241;1050;-47
2021/10/07 05:35:32;;;;;;;;;;;22.20;56.30;;;;;;494951;240;2186;-47
2021/10/07 05:37:33;;;;;;;;;;;22.30;56.30;;;;;;494762;241;1214;-47
2021/10/07 05:39:35;;;;;;;;;;;22.30;56.30;;;;;;494818;240;979;-47
2021/10/07 05:41:36;;;;;;;;;;;22.30;56.30;;;;;;494781;240;1247;-47
2021/10/07 05:43:37;;;;;;;;;;;22.20;56.30;;;;;;494863;240;1062;-47
2021/10/07 05:45:39;;;;;;;;;;;22.30;56.20;;;;;;494819;240;1085;-47
2021/10/07 05:47:40;;;;;;;;;;;22.20;56.20;;;;;;494866;240;1309;-47
2021/10/07 05:49:41;;;;;;;;;;;22.30;56.20;;;;;;495132;240;1111;-47
2021/10/07 05:51:43;;;;;;;;;;;22.30;56.30;;;;;;495082;240;1334;-47
2021/10/07 05:53:44;;;;;;;;;;;22.20;56.30;;;;;;495084;240;1174;-47
2021/10/07 05:55:46;;;;;;;;;;;22.20;56.30;;;;;;494867;241;2182;-47
2021/10/07 05:57:47;;;;;;;;;;;22.20;56.30;;;;;;494876;241;1198;-47
2021/10/07 05:59:48;;;;;;;;;;;22.30;56.30;;;;;;494799;241;1076;-47
2021/10/07 06:01:50;;;;;;;;;;;22.30;56.20;;;;;;494541;241;1262;-47
2021/10/07 06:03:51;;;;;;;;;;;22.30;56.20;;;;;;494775;240;1040;-47
2021/10/07 06:05:52;;;;;;;;;;;22.30;56.20;;;;;;494859;240;1410;-47
2021/10/07 06:07:54;;;;;;;;;;;22.30;56.20;;;;;;494823;241;1288;-47
2021/10/07 06:09:55;;;;;;;;;;;22.30;56.20;;;;;;494982;240;1065;-47
2021/10/07 06:11:56;;;;;;;;;;;22.30;56.30;;;;;;494736;240;1203;-47
2021/10/07 06:13:57;;;;;;;;;;;22.30;56.30;;;;;;494834;240;969;-47
2021/10/07 06:15:59;;;;;;;;;;;22.30;56.20;;;;;;494834;240;2410;-48
2021/10/07 06:18:00;;;;;;;;;;;22.30;56.30;;;;;;494748;240;1141;-47
2021/10/07 06:20:05;;;;;;;;;;;22.20;56.30;;;;;;494701;241;1163;-47
2021/10/07 06:22:04;;;;;;;;;;;22.30;56.20;;;;;;494440;241;2263;-47
2021/10/07 06:24:05;;;;;;;;;;;22.30;56.20;;;;;;494715;240;1224;-46
2021/10/07 06:26:06;;;;;;;;;;;22.30;56.20;;;;;;494456;238;1348;-47
2021/10/07 06:28:08;;;;;;;;;;;22.20;56.30;;;;;;494581;241;1077;-47
2021/10/07 06:30:09;;;;;;;;;;;22.20;56.40;;;;;;494638;240;1192;-47
2021/10/07 06:32:10;;;;;;;;;;;22.20;56.30;;;;;;494580;241;1228;-47
2021/10/07 06:34:12;;;;;;;;;;;22.30;56.30;;;;;;494612;240;1194;-47
2021/10/07 06:36:13;;;;;;;;;;;22.30;56.20;;;;;;494653;240;2174;-47
2021/10/07 06:38:14;;;;;;;;;;;22.30;56.20;;;;;;494866;241;1098;-47
2021/10/07 06:40:16;;;;;;;;;;;22.30;56.20;;;;;;494437;241;1214;-47
2021/10/07 06:42:17;;;;;;;;;;;22.30;56.20;;;;;;494910;240;1156;-47
2021/10/07 06:44:19;;;;;;;;;;;22.30;56.10;;;;;;494654;240;1066;-47
2021/10/07 06:46:20;;;;;;;;;;;22.30;56.20;;;;;;494384;240;1334;-48
2021/10/07 06:48:21;;;;;;;;;;;22.30;56.20;;;;;;494770;240;1204;-47
2021/10/07 06:50:22;;;;;;;;;;;22.30;56.10;;;;;;494460;241;1423;-47
2021/10/07 06:52:23;;;;;;;;;;;22.30;56.10;;;;;;494405;240;1173;-47
2021/10/07 06:54:25;;;;;;;;;;;22.30;56.20;;;;;;494227;240;1225;-47
2021/10/07 06:56:26;;;;;;;;;;;22.30;56.20;;;;;;494202;241;1130;-47
2021/10/07 06:58:27;;;;;;;;;;;22.30;56.10;;;;;;494531;240;1096;-47
2021/10/07 07:00:29;;;;;;;;;;;22.30;56.10;;;;;;494443;241;1142;-48
2021/10/07 07:02:30;;;;;;;;;;;22.30;56.20;;;;;;494501;241;1152;-48
2021/10/07 07:04:31;;;;;;;;;;;22.30;56.20;;;;;;494470;241;1045;-47
2021/10/07 07:06:33;;;;;;;;;;;22.30;56.20;;;;;;494442;241;1471;-47
2021/10/07 07:08:34;;;;;;;;;;;22.30;56.30;;;;;;494474;241;1220;-47
2021/10/07 07:10:35;;;;;;;;;;;22.30;56.20;;;;;;494213;241;1138;-47
2021/10/07 07:12:37;;;;;;;;;;;22.30;56.30;;;;;;494038;241;1232;-48
2021/10/07 07:14:38;;;;;;;;;;;22.30;56.30;;;;;;494086;241;2202;-47
2021/10/07 07:16:39;;;;;;;;;;;22.30;56.20;;;;;;494323;241;1338;-47
2021/10/07 07:18:41;;;;;;;;;;;22.30;56.20;;;;;;494589;241;1111;-47
2021/10/07 07:20:42;;;;;;;;;;;22.30;56.20;;;;;;494330;240;1331;-47
2021/10/07 07:22:43;;;;;;;;;;;22.30;56.30;;;;;;494341;240;1184;-47
2021/10/07 07:24:45;;;;;;;;;;;22.30;56.20;;;;;;494336;240;1197;-47
2021/10/07 07:26:46;;;;;;;;;;;22.30;56.10;;;;;;494147;241;1213;-48
2021/10/07 07:28:47;;;;;;;;;;;22.30;56.20;;;;;;494171;241;1105;-47
2021/10/07 07:30:49;;;;;;;;;;;22.30;56.20;;;;;;494137;240;1254;-47
2021/10/07 07:32:50;;;;;;;;;;;22.30;56.20;;;;;;495065;240;1343;-48
2021/10/07 07:34:52;;;;;;;;;;;22.30;56.10;;;;;;494740;240;2190;-47
2021/10/07 07:36:53;;;;;;;;;;;22.30;56.10;;;;;;494477;240;1323;-47
2021/10/07 07:38:55;;;;;;;;;;;22.30;56.10;;;;;;494351;240;1189;-47
2021/10/07 07:40:57;;;;;;;;;;;22.30;56.20;;;;;;494021;240;1259;-47
2021/10/07 07:42:58;;;;;;;;;;;22.30;56.20;;;;;;494167;241;2117;-48
2021/10/07 07:44:59;;;;;;;;;;;22.30;56.20;;;;;;494419;240;1175;-47
2021/10/07 07:47:00;;;;;;;;;;;22.30;56.20;;;;;;494373;241;1248;-47
2021/10/07 07:49:02;;;;;;;;;;;22.30;56.20;;;;;;494553;241;1099;-47
2021/10/07 07:51:03;;;;;;;;;;;22.40;56.10;;;;;;494502;241;1173;-47
2021/10/07 07:53:05;;;;;;;;;;;22.30;56.10;;;;;;494449;241;1169;-47
2021/10/07 07:55:06;;;;;;;;;;;22.30;56.20;;;;;;494266;240;2328;-47
2021/10/07 07:57:07;;;;;;;;;;;22.30;56.10;;;;;;494469;240;1160;-48
2021/10/07 07:59:09;;;;;;;;;;;22.30;56.10;;;;;;495049;240;1065;-47
2021/10/07 08:01:10;;;;;;;;;;;22.30;56.10;;;;;;494395;241;2438;-48
2021/10/07 08:03:11;;;;;;;;;;;22.30;56.20;;;;;;494544;241;1055;-47
2021/10/07 08:05:14;;;;;;;;;;;22.30;56.10;;;;;;494404;240;1076;-47
2021/10/07 08:07:14;;;;;;;;;;;22.30;56.10;;;;;;494267;240;2155;-47
2021/10/07 08:09:15;;;;;;;;;;;22.30;56.10;;;;;;494492;240;1220;-47
2021/10/07 08:11:16;;;;;;;;;;;22.30;56.10;;;;;;494303;240;1384;-47
2021/10/07 08:13:19;;;;;;;;;;;22.30;56.10;;;;;;494317;241;1056;-47
2021/10/07 08:15:19;;;;;;;;;;;22.30;56.10;;;;;;494358;240;2221;-47
2021/10/07 08:17:21;;;;;;;;;;;22.30;56.20;;;;;;494337;241;1125;-47
2021/10/07 08:19:22;;;;;;;;;;;22.30;56.20;;;;;;494368;241;2057;-47
2021/10/07 08:21:23;;;;;;;;;;;22.30;56.20;;;;;;494251;240;1067;-47
2021/10/07 08:23:28;;;;;;;;;;;22.30;56.20;;;;;;494313;241;1068;-48
2021/10/07 08:25:26;;;;;;;;;;;22.30;56.10;;;;;;493932;240;2124;-47
2021/10/07 08:27:28;;;;;;;;;;;22.30;56.10;;;;;;494171;241;1055;-47
2021/10/07 08:29:29;;;;;;;;;;;22.30;56.10;;;;;;494196;241;2228;-47
2021/10/07 08:31:30;;;;;;;;;;;22.30;56.10;;;;;;494121;241;1123;-47
2021/10/07 08:33:31;;;;;;;;;;;22.30;56.20;;;;;;494178;241;1162;-47
2021/10/07 08:35:33;;;;;;;;;;;22.30;56.10;;;;;;493468;241;2179;-47
2021/10/07 08:37:34;;;;;;;;;;;22.30;56.10;;;;;;494552;240;1273;-48
2021/10/07 08:39:35;;;;;;;;;;;22.30;56.00;;;;;;495050;240;1230;-47
2021/10/07 08:41:37;;;;;;;;;;;22.30;56.10;;;;;;495116;240;1039;-47
2021/10/07 08:43:38;;;;;;;;;;;22.30;56.00;;;;;;495227;240;822;-47
2021/10/07 08:45:39;;;;;;;;;;;22.40;56.00;;;;;;494725;241;984;-47
2021/10/07 08:47:41;;;;;;;;;;;22.40;55.90;;;;;;495114;240;1139;-47
2021/10/07 08:49:43;;;;;;;;;;;22.30;55.90;;;;;;494804;240;1099;-47
2021/10/07 08:51:44;;;;;;;;;;;22.40;56.00;;;;;;494199;240;1579;-47
2021/10/07 08:53:45;;;;;;;;;;;22.40;56.00;;;;;;494346;241;1116;-47
2021/10/07 08:55:46;;;;;;;;;;;22.30;56.20;;;;;;494343;240;2190;-48
2021/10/07 08:57:48;;;;;;;;;;;22.40;56.10;;;;;;494343;241;1249;-47
2021/10/07 08:59:49;;;;;;;;;;;22.30;56.10;;;;;;494294;240;1100;-47
2021/10/07 09:01:50;;;;;;;;;;;22.40;56.00;;;;;;494163;240;1259;-47
2021/10/07 09:03:52;;;;;;;;;;;22.30;56.00;;;;;;494204;241;1242;-47
2021/10/07 09:05:53;;;;;;;;;;;22.30;56.00;;;;;;494138;240;1328;-47
2021/10/07 09:07:55;;;;;;;;;;;22.30;56.10;;;;;;495128;240;1086;-47
2021/10/07 09:09:56;;;;;;;;;;;22.40;56.10;;;;;;494786;241;1176;-48
2021/10/07 09:11:57;;;;;;;;;;;22.30;56.10;;;;;;495139;240;1145;-47
2021/10/07 09:13:59;;;;;;;;;;;22.30;56.20;;;;;;494531;240;1134;-47
2021/10/07 09:16:01;;;;;;;;;;;22.30;56.10;;;;;;494313;240;2190;-47
2021/10/07 09:18:02;;;;;;;;;;;22.30;56.20;;;;;;494350;240;2353;-47
2021/10/07 09:20:03;;;;;;;;;;;22.30;56.10;;;;;;494280;240;1035;-47
2021/10/07 09:22:04;;;;;;;;;;;22.30;56.10;;;;;;494156;240;1287;-47
2021/10/07 09:24:05;;;;;;;;;;;22.30;56.10;;;;;;494266;240;1232;-47
2021/10/07 09:26:07;;;;;;;;;;;22.30;56.10;;;;;;494364;240;1381;-47
2021/10/07 09:28:08;;;;;;;;;;;22.40;56.00;;;;;;494446;240;1304;-47
2021/10/07 09:30:09;;;;;;;;;;;22.40;56.10;;;;;;494444;240;1131;-47
2021/10/07 09:32:11;;;;;;;;;;;22.30;56.10;;;;;;494282;241;1208;-47
2021/10/07 09:34:12;;;;;;;;;;;22.30;56.10;;;;;;494366;240;1237;-47
2021/10/07 09:36:14;;;;;;;;;;;22.30;56.00;;;;;;494371;240;2231;-47
2021/10/07 09:38:15;;;;;;;;;;;22.30;56.00;;;;;;494432;240;1310;-47
2021/10/07 09:40:17;;;;;;;;;;;22.30;56.00;;;;;;494258;240;1195;-47
2021/10/07 09:42:18;;;;;;;;;;;22.30;56.00;;;;;;494338;240;1210;-47
2021/10/07 09:44:20;;;;;;;;;;;22.30;56.00;;;;;;494360;241;1106;-47
2021/10/07 09:46:21;;;;;;;;;;;22.40;56.00;;;;;;494459;240;1235;-47
2021/10/07 09:48:22;;;;;;;;;;;22.40;56.00;;;;;;494409;241;1198;-47
2021/10/07 09:50:24;;;;;;;;;;;22.40;56.00;;;;;;494384;240;1162;-47
2021/10/07 09:52:25;;;;;;;;;;;22.40;56.00;;;;;;494356;240;1195;-47
2021/10/07 09:54:27;;;;;;;;;;;22.30;56.00;;;;;;494360;240;1143;-47
2021/10/07 09:56:28;;;;;;;;;;;22.30;56.00;;;;;;494014;240;2352;-47
2021/10/07 09:58:29;;;;;;;;;;;22.30;56.10;;;;;;494173;240;1080;-48
2021/10/07 10:00:30;;;;;;;;;;;22.30;56.00;;;;;;494228;240;1423;-47
2021/10/07 10:02:32;;;;;;;;;;;22.40;56.00;;;;;;494308;240;1079;-47
2021/10/07 10:04:33;;;;;;;;;;;22.40;55.90;;;;;;494378;240;1058;-47
2021/10/07 10:06:34;;;;;;;;;;;22.30;56.00;;;;;;494277;240;1270;-47
2021/10/07 10:08:36;;;;;;;;;;;22.30;56.10;;;;;;494198;240;1325;-47
2021/10/07 10:10:37;;;;;;;;;;;22.30;56.10;;;;;;494443;240;1195;-47
2021/10/07 10:12:38;;;;;;;;;;;22.40;56.00;;;;;;494461;240;1163;-47
2021/10/07 10:14:40;;;;;;;;;;;22.30;56.00;;;;;;494374;241;1078;-47
2021/10/07 10:16:41;;;;;;;;;;;22.40;56.00;;;;;;494059;240;2243;-47
2021/10/07 10:18:42;;;;;;;;;;;22.30;55.90;;;;;;494152;240;1168;-47
2021/10/07 10:20:45;;;;;;;;;;;22.30;56.00;;;;;;494440;240;1073;-47
2021/10/07 10:22:45;;;;;;;;;;;22.30;56.10;;;;;;494090;240;2333;-47
2021/10/07 10:24:46;;;;;;;;;;;22.30;56.10;;;;;;494345;240;1096;-47
2021/10/07 10:26:47;;;;;;;;;;;22.30;56.10;;;;;;494359;240;1596;-47
2021/10/07 10:28:50;;;;;;;;;;;22.40;56.00;;;;;;494586;240;1179;-48
2021/10/07 10:30:51;;;;;;;;;;;22.40;56.10;;;;;;494753;240;1281;-47
2021/10/07 10:32:56;;;;;;;;;;;22.40;56.10;;;;;;495016;240;1047;-47
2021/10/07 10:34:57;;;;;;;;;;;22.30;56.10;;;;;;494391;240;1115;-47
2021/10/07 10:36:59;;;;;;;;;;;22.30;56.10;;;;;;494118;240;2198;-47
2021/10/07 10:39:00;;;;;;;;;;;22.30;56.10;;;;;;494215;241;1087;-47
2021/10/07 10:41:02;;;;;;;;;;;22.40;56.00;;;;;;494451;240;1118;-47
2021/10/07 10:43:03;;;;;;;;;;;22.30;56.10;;;;;;494499;240;1250;-47
2021/10/07 10:45:05;;;;;;;;;;;22.30;56.10;;;;;;494498;240;1082;-47
2021/10/07 10:47:06;;;;;;;;;;;22.30;56.00;;;;;;494296;240;2079;-47
2021/10/07 10:49:07;;;;;;;;;;;22.40;56.00;;;;;;494459;240;1121;-47
2021/10/07 10:51:09;;;;;;;;;;;22.30;56.00;;;;;;494247;241;1501;-47
2021/10/07 10:53:10;;;;;;;;;;;22.30;56.00;;;;;;494453;240;1193;-47
2021/10/07 10:55:11;;;;;;;;;;;22.40;56.00;;;;;;494382;240;1084;-47
2021/10/07 10:57:13;;;;;;;;;;;22.30;56.00;;;;;;494359;241;2194;-48
2021/10/07 10:59:14;;;;;;;;;;;22.30;56.00;;;;;;495215;240;821;-47
2021/10/07 11:01:15;;;;;;;;;;;22.40;56.00;;;;;;494623;240;1131;-47
2021/10/07 11:03:17;;;;;;;;;;;22.40;56.00;;;;;;494404;241;1067;-47
2021/10/07 11:05:18;;;;;;;;;;;22.40;55.90;;;;;;494443;240;1086;-47
2021/10/07 11:07:20;;;;;;;;;;;22.40;55.90;;;;;;494482;240;1156;-47
2021/10/07 11:09:21;;;;;;;;;;;22.40;56.00;;;;;;494635;240;2127;-47
2021/10/07 11:11:22;;;;;;;;;;;22.30;56.00;;;;;;494420;240;1225;-47
2021/10/07 11:13:23;;;;;;;;;;;22.30;56.00;;;;;;494843;241;822;-46
2021/10/07 11:15:24;;;;;;;;;;;22.40;56.00;;;;;;495295;240;1217;-47
2021/10/07 11:17:27;;;;;;;;;;;22.30;56.00;;;;;;494560;240;2190;-47
2021/10/07 11:19:27;;;;;;;;;;;22.30;56.00;;;;;;494514;241;2159;-47
2021/10/07 11:21:29;;;;;;;;;;;22.40;56.00;;;;;;494270;240;1335;-47
2021/10/07 11:23:32;;;;;;;;;;;22.30;55.90;;;;;;495122;240;811;-47
2021/10/07 11:25:31;;;;;;;;;;;22.30;55.90;;;;;;494472;241;2135;-47
2021/10/07 11:27:32;;;;;;;;;;;22.40;56.00;;;;;;494460;240;1220;-47
2021/10/07 11:29:34;;;;;;;;;;;22.40;56.00;;;;;;494217;240;1094;-47
2021/10/07 11:31:35;;;;;;;;;;;22.40;56.00;;;;;;494004;240;1335;-47
2021/10/07 11:33:36;;;;;;;;;;;22.30;56.00;;;;;;494870;240;876;-47
2021/10/07 11:35:38;;;;;;;;;;;22.30;56.00;;;;;;494384;240;1194;-47
2021/10/07 11:37:39;;;;;;;;;;;22.30;56.10;;;;;;494063;241;2185;-47
2021/10/07 11:39:40;;;;;;;;;;;22.30;56.10;;;;;;494176;240;1095;-47
2021/10/07 11:41:42;;;;;;;;;;;22.30;56.10;;;;;;494211;240;1555;-47
2021/10/07 11:43:43;;;;;;;;;;;22.30;55.90;;;;;;494302;240;1049;-47
2021/10/07 11:45:44;;;;;;;;;;;22.30;55.90;;;;;;494270;241;1234;-47
2021/10/07 11:47:46;;;;;;;;;;;22.40;56.00;;;;;;494659;241;1174;-47
2021/10/07 11:49:47;;;;;;;;;;;22.30;56.00;;;;;;494741;241;1171;-47
2021/10/07 11:51:48;;;;;;;;;;;22.40;55.90;;;;;;494634;241;1132;-47
2021/10/07 11:53:50;;;;;;;;;;;22.40;55.90;;;;;;494396;240;1195;-47
2021/10/07 11:55:51;;;;;;;;;;;22.40;55.90;;;;;;495119;240;1308;-47
2021/10/07 11:57:52;;;;;;;;;;;22.30;56.00;;;;;;494770;241;2175;-47
2021/10/07 11:59:53;;;;;;;;;;;22.40;56.00;;;;;;495120;240;863;-47
2021/10/07 12:01:55;;;;;;;;;;;22.30;56.00;;;;;;494532;241;1022;-47